sensor_id;sensor_type;location;lat;lon;timestamp;P1;durP1;ratioP1;P2;durP2;ratioP2
71773;SDS011;59607;52.130;5.430;2022-12-29T00:01:01;1.40;;;0.60;;
71773;SDS011;59607;52.130;5.430;2022-12-29T00:03:28;1.23;;;0.60;;
71773;SDS011;59607;52.130;5.430;2022-12-29T00:05:55;1.55;;;0.80;;
71773;SDS011;59607;52.130;5.430;2022-12-29T00:08:26;1.38;;;0.80;;
71773;SDS011;59607;52.130;5.430;2022-12-29T00:11:07;1.15;;;0.70;;
71773;SDS011;59607;52.130;5.430;2022-12-29T00:13:37;0.90;;;0.50;;
71773;SDS011;59607;52.130;5.430;2022-12-29T00:16:31;0.93;;;0.45;;
71773;SDS011;59607;52.130;5.430;2022-12-29T00:18:58;1.33;;;0.43;;
71773;SDS011;59607;52.130;5.430;2022-12-29T00:21:52;1.33;;;0.40;;
71773;SDS011;59607;52.130;5.430;2022-12-29T00:24:40;1.17;;;0.40;;
71773;SDS011;59607;52.130;5.430;2022-12-29T00:27:26;3.17;;;0.40;;
71773;SDS011;59607;52.130;5.430;2022-12-29T00:30:19;0.82;;;0.50;;
71773;SDS011;59607;52.130;5.430;2022-12-29T00:33:16;0.85;;;0.43;;
71773;SDS011;59607;52.130;5.430;2022-12-29T00:39:07;2.22;;;0.60;;
71773;SDS011;59607;52.130;5.430;2022-12-29T00:41:56;1.00;;;0.50;;
71773;SDS011;59607;52.130;5.430;2022-12-29T00:44:52;1.02;;;0.52;;
71773;SDS011;59607;52.130;5.430;2022-12-29T00:47:27;0.75;;;0.50;;
71773;SDS011;59607;52.130;5.430;2022-12-29T00:49:53;1.30;;;0.40;;
71773;SDS011;59607;52.130;5.430;2022-12-29T00:52:20;1.60;;;0.50;;
71773;SDS011;59607;52.130;5.430;2022-12-29T00:54:52;1.30;;;0.30;;
71773;SDS011;59607;52.130;5.430;2022-12-29T00:57:18;1.23;;;0.40;;
71773;SDS011;59607;52.130;5.430;2022-12-29T00:59:45;2.00;;;0.47;;
71773;SDS011;59607;52.130;5.430;2022-12-29T01:02:15;1.70;;;0.40;;
71773;SDS011;59607;52.130;5.430;2022-12-29T01:04:43;0.80;;;0.30;;
71773;SDS011;59607;52.130;5.430;2022-12-29T01:07:12;0.70;;;0.37;;
71773;SDS011;59607;52.130;5.430;2022-12-29T01:09:44;1.73;;;0.52;;
71773;SDS011;59607;52.130;5.430;2022-12-29T01:12:33;1.20;;;0.30;;
71773;SDS011;59607;52.130;5.430;2022-12-29T01:15:12;2.05;;;0.40;;
71773;SDS011;59607;52.130;5.430;2022-12-29T01:17:46;3.35;;;0.55;;
71773;SDS011;59607;52.130;5.430;2022-12-29T01:20:13;0.50;;;0.30;;
71773;SDS011;59607;52.130;5.430;2022-12-29T01:23:08;2.58;;;0.32;;
71773;SDS011;59607;52.130;5.430;2022-12-29T01:25:34;2.38;;;0.47;;
71773;SDS011;59607;52.130;5.430;2022-12-29T01:28:07;1.35;;;0.40;;
71773;SDS011;59607;52.130;5.430;2022-12-29T01:30:38;1.63;;;0.30;;
71773;SDS011;59607;52.130;5.430;2022-12-29T01:33:04;0.90;;;0.30;;
71773;SDS011;59607;52.130;5.430;2022-12-29T01:35:46;0.90;;;0.20;;
71773;SDS011;59607;52.130;5.430;2022-12-29T01:38:22;1.45;;;0.32;;
71773;SDS011;59607;52.130;5.430;2022-12-29T01:40:48;1.70;;;0.60;;
71773;SDS011;59607;52.130;5.430;2022-12-29T01:43:15;1.30;;;0.30;;
71773;SDS011;59607;52.130;5.430;2022-12-29T01:45:45;0.70;;;0.30;;
71773;SDS011;59607;52.130;5.430;2022-12-29T01:48:30;1.65;;;0.30;;
71773;SDS011;59607;52.130;5.430;2022-12-29T01:51:12;0.98;;;0.30;;
71773;SDS011;59607;52.130;5.430;2022-12-29T01:53:54;1.77;;;0.30;;
71773;SDS011;59607;52.130;5.430;2022-12-29T01:56:27;1.05;;;0.38;;
71773;SDS011;59607;52.130;5.430;2022-12-29T01:58:56;2.20;;;0.33;;
71773;SDS011;59607;52.130;5.430;2022-12-29T02:01:29;1.83;;;0.40;;
71773;SDS011;59607;52.130;5.430;2022-12-29T02:03:56;1.65;;;0.30;;
71773;SDS011;59607;52.130;5.430;2022-12-29T02:07:09;1.35;;;0.20;;
71773;SDS011;59607;52.130;5.430;2022-12-29T02:09:30;0.82;;;0.20;;
71773;SDS011;59607;52.130;5.430;2022-12-29T02:12:03;0.83;;;0.27;;
71773;SDS011;59607;52.130;5.430;2022-12-29T02:14:32;0.50;;;0.20;;
71773;SDS011;59607;52.130;5.430;2022-12-29T02:31:55;0.70;;;0.30;;
71773;SDS011;59607;52.130;5.430;2022-12-29T02:34:39;0.70;;;0.20;;
71773;SDS011;59607;52.130;5.430;2022-12-29T02:37:32;1.70;;;0.30;;
71773;SDS011;59607;52.130;5.430;2022-12-29T02:40:16;1.40;;;0.30;;
71773;SDS011;59607;52.130;5.430;2022-12-29T02:46:28;0.98;;;0.20;;
71773;SDS011;59607;52.130;5.430;2022-12-29T02:49:13;0.52;;;0.20;;
71773;SDS011;59607;52.130;5.430;2022-12-29T02:55:00;0.80;;;0.20;;
71773;SDS011;59607;52.130;5.430;2022-12-29T03:03:04;1.00;;;0.20;;
71773;SDS011;59607;52.130;5.430;2022-12-29T03:11:53;2.40;;;0.20;;
71773;SDS011;59607;52.130;5.430;2022-12-29T03:20:26;1.60;;;0.20;;
71773;SDS011;59607;52.130;5.430;2022-12-29T03:23:01;0.97;;;0.20;;
71773;SDS011;59607;52.130;5.430;2022-12-29T03:25:33;0.55;;;0.20;;
71773;SDS011;59607;52.130;5.430;2022-12-29T03:28:17;0.57;;;0.20;;
71773;SDS011;59607;52.130;5.430;2022-12-29T03:30:50;1.08;;;0.20;;
71773;SDS011;59607;52.130;5.430;2022-12-29T03:33:34;0.77;;;0.20;;
71773;SDS011;59607;52.130;5.430;2022-12-29T03:36:09;0.57;;;0.20;;
71773;SDS011;59607;52.130;5.430;2022-12-29T03:38:50;4.35;;;0.40;;
71773;SDS011;59607;52.130;5.430;2022-12-29T03:41:28;0.80;;;0.30;;
71773;SDS011;59607;52.130;5.430;2022-12-29T03:43:57;1.05;;;0.30;;
71773;SDS011;59607;52.130;5.430;2022-12-29T03:46:29;1.23;;;0.38;;
71773;SDS011;59607;52.130;5.430;2022-12-29T03:48:55;2.60;;;0.20;;
71773;SDS011;59607;52.130;5.430;2022-12-29T03:51:21;0.55;;;0.20;;
71773;SDS011;59607;52.130;5.430;2022-12-29T03:53:53;1.25;;;0.30;;
71773;SDS011;59607;52.130;5.430;2022-12-29T03:56:19;1.58;;;0.30;;
71773;SDS011;59607;52.130;5.430;2022-12-29T03:58:49;1.73;;;0.30;;
71773;SDS011;59607;52.130;5.430;2022-12-29T04:01:16;2.23;;;0.30;;
71773;SDS011;59607;52.130;5.430;2022-12-29T04:03:43;1.95;;;0.20;;
71773;SDS011;59607;52.130;5.430;2022-12-29T04:06:11;0.60;;;0.30;;
71773;SDS011;59607;52.130;5.430;2022-12-29T04:08:46;0.85;;;0.30;;
71773;SDS011;59607;52.130;5.430;2022-12-29T04:11:19;3.33;;;0.50;;
71773;SDS011;59607;52.130;5.430;2022-12-29T04:14:05;4.27;;;0.20;;
71773;SDS011;59607;52.130;5.430;2022-12-29T04:16:32;3.15;;;0.30;;
71773;SDS011;59607;52.130;5.430;2022-12-29T04:19:02;2.40;;;0.30;;
71773;SDS011;59607;52.130;5.430;2022-12-29T04:21:29;1.02;;;0.30;;
71773;SDS011;59607;52.130;5.430;2022-12-29T04:23:55;2.60;;;0.30;;
71773;SDS011;59607;52.130;5.430;2022-12-29T04:26:27;3.30;;;0.40;;
71773;SDS011;59607;52.130;5.430;2022-12-29T04:28:56;2.22;;;0.20;;
71773;SDS011;59607;52.130;5.430;2022-12-29T04:31:23;4.25;;;0.30;;
71773;SDS011;59607;52.130;5.430;2022-12-29T04:33:52;1.35;;;0.20;;
71773;SDS011;59607;52.130;5.430;2022-12-29T04:36:23;1.85;;;0.50;;
71773;SDS011;59607;52.130;5.430;2022-12-29T04:38:55;2.03;;;0.30;;
71773;SDS011;59607;52.130;5.430;2022-12-29T04:41:25;2.17;;;0.28;;
71773;SDS011;59607;52.130;5.430;2022-12-29T04:43:57;4.03;;;0.73;;
71773;SDS011;59607;52.130;5.430;2022-12-29T04:46:26;4.72;;;0.30;;
71773;SDS011;59607;52.130;5.430;2022-12-29T04:48:53;3.90;;;0.85;;
71773;SDS011;59607;52.130;5.430;2022-12-29T04:51:20;1.87;;;0.27;;
71773;SDS011;59607;52.130;5.430;2022-12-29T04:53:46;2.85;;;0.20;;
71773;SDS011;59607;52.130;5.430;2022-12-29T04:56:13;7.13;;;1.35;;
71773;SDS011;59607;52.130;5.430;2022-12-29T04:58:39;1.65;;;0.30;;
71773;SDS011;59607;52.130;5.430;2022-12-29T05:01:19;4.25;;;0.30;;
71773;SDS011;59607;52.130;5.430;2022-12-29T05:03:52;2.00;;;0.40;;
71773;SDS011;59607;52.130;5.430;2022-12-29T05:06:19;5.60;;;0.70;;
71773;SDS011;59607;52.130;5.430;2022-12-29T05:08:45;4.90;;;0.38;;
71773;SDS011;59607;52.130;5.430;2022-12-29T05:11:12;3.33;;;0.20;;
71773;SDS011;59607;52.130;5.430;2022-12-29T05:13:44;1.00;;;0.20;;
71773;SDS011;59607;52.130;5.430;2022-12-29T05:16:14;3.87;;;0.40;;
71773;SDS011;59607;52.130;5.430;2022-12-29T05:18:40;3.03;;;0.40;;
71773;SDS011;59607;52.130;5.430;2022-12-29T05:21:07;5.72;;;0.70;;
71773;SDS011;59607;52.130;5.430;2022-12-29T05:23:39;8.45;;;0.60;;
71773;SDS011;59607;52.130;5.430;2022-12-29T05:26:08;11.40;;;1.35;;
71773;SDS011;59607;52.130;5.430;2022-12-29T05:28:35;7.00;;;0.47;;
71773;SDS011;59607;52.130;5.430;2022-12-29T05:31:08;4.60;;;0.43;;
71773;SDS011;59607;52.130;5.430;2022-12-29T05:33:34;2.80;;;0.68;;
71773;SDS011;59607;52.130;5.430;2022-12-29T05:36:04;6.75;;;0.63;;
71773;SDS011;59607;52.130;5.430;2022-12-29T05:38:40;3.55;;;0.50;;
71773;SDS011;59607;52.130;5.430;2022-12-29T05:41:09;2.63;;;0.27;;
71773;SDS011;59607;52.130;5.430;2022-12-29T05:43:39;3.67;;;0.68;;
71773;SDS011;59607;52.130;5.430;2022-12-29T05:46:05;7.05;;;0.30;;
71773;SDS011;59607;52.130;5.430;2022-12-29T05:48:53;3.75;;;0.40;;
71773;SDS011;59607;52.130;5.430;2022-12-29T05:51:22;3.80;;;0.32;;
71773;SDS011;59607;52.130;5.430;2022-12-29T05:53:49;4.53;;;0.33;;
71773;SDS011;59607;52.130;5.430;2022-12-29T05:56:22;4.32;;;0.57;;
71773;SDS011;59607;52.130;5.430;2022-12-29T05:58:48;4.53;;;0.50;;
71773;SDS011;59607;52.130;5.430;2022-12-29T06:01:15;2.70;;;0.30;;
71773;SDS011;59607;52.130;5.430;2022-12-29T06:03:48;2.53;;;0.30;;
71773;SDS011;59607;52.130;5.430;2022-12-29T06:06:14;2.10;;;0.40;;
71773;SDS011;59607;52.130;5.430;2022-12-29T06:08:49;2.92;;;0.32;;
71773;SDS011;59607;52.130;5.430;2022-12-29T06:11:15;5.18;;;0.50;;
71773;SDS011;59607;52.130;5.430;2022-12-29T06:13:42;2.47;;;0.40;;
71773;SDS011;59607;52.130;5.430;2022-12-29T06:16:25;3.90;;;0.30;;
71773;SDS011;59607;52.130;5.430;2022-12-29T06:18:55;6.97;;;0.60;;
71773;SDS011;59607;52.130;5.430;2022-12-29T06:21:21;5.25;;;0.40;;
71773;SDS011;59607;52.130;5.430;2022-12-29T06:23:50;7.88;;;0.50;;
71773;SDS011;59607;52.130;5.430;2022-12-29T06:26:20;4.63;;;0.43;;
71773;SDS011;59607;52.130;5.430;2022-12-29T06:28:47;9.30;;;0.65;;
71773;SDS011;59607;52.130;5.430;2022-12-29T06:31:21;3.60;;;0.37;;
71773;SDS011;59607;52.130;5.430;2022-12-29T06:33:48;6.00;;;0.60;;
71773;SDS011;59607;52.130;5.430;2022-12-29T06:36:15;5.75;;;0.85;;
71773;SDS011;59607;52.130;5.430;2022-12-29T06:38:46;10.20;;;0.68;;
71773;SDS011;59607;52.130;5.430;2022-12-29T06:41:12;4.68;;;0.43;;
71773;SDS011;59607;52.130;5.430;2022-12-29T06:43:41;5.70;;;0.30;;
71773;SDS011;59607;52.130;5.430;2022-12-29T06:46:16;8.95;;;0.65;;
71773;SDS011;59607;52.130;5.430;2022-12-29T06:48:45;3.72;;;0.55;;
71773;SDS011;59607;52.130;5.430;2022-12-29T06:51:15;6.20;;;0.50;;
71773;SDS011;59607;52.130;5.430;2022-12-29T06:53:51;7.07;;;0.50;;
71773;SDS011;59607;52.130;5.430;2022-12-29T06:56:21;4.60;;;0.47;;
71773;SDS011;59607;52.130;5.430;2022-12-29T06:58:47;4.65;;;0.43;;
71773;SDS011;59607;52.130;5.430;2022-12-29T07:01:19;3.00;;;0.50;;
71773;SDS011;59607;52.130;5.430;2022-12-29T07:03:46;3.83;;;0.50;;
71773;SDS011;59607;52.130;5.430;2022-12-29T07:06:12;4.05;;;0.40;;
71773;SDS011;59607;52.130;5.430;2022-12-29T07:08:45;5.40;;;0.50;;
71773;SDS011;59607;52.130;5.430;2022-12-29T07:11:12;2.95;;;0.38;;
71773;SDS011;59607;52.130;5.430;2022-12-29T07:13:46;6.43;;;0.65;;
71773;SDS011;59607;52.130;5.430;2022-12-29T07:16:12;6.03;;;0.55;;
71773;SDS011;59607;52.130;5.430;2022-12-29T07:18:39;4.65;;;0.52;;
71773;SDS011;59607;52.130;5.430;2022-12-29T07:21:12;3.07;;;0.30;;
71773;SDS011;59607;52.130;5.430;2022-12-29T07:23:39;4.10;;;0.30;;
71773;SDS011;59607;52.130;5.430;2022-12-29T07:26:14;3.33;;;0.40;;
71773;SDS011;59607;52.130;5.430;2022-12-29T07:28:45;3.63;;;0.30;;
71773;SDS011;59607;52.130;5.430;2022-12-29T07:31:17;4.03;;;0.30;;
71773;SDS011;59607;52.130;5.430;2022-12-29T07:33:45;3.93;;;0.40;;
71773;SDS011;59607;52.130;5.430;2022-12-29T07:36:16;3.45;;;0.70;;
71773;SDS011;59607;52.130;5.430;2022-12-29T07:38:46;5.10;;;0.52;;
71773;SDS011;59607;52.130;5.430;2022-12-29T07:41:12;4.25;;;0.52;;
71773;SDS011;59607;52.130;5.430;2022-12-29T07:43:48;3.55;;;0.50;;
71773;SDS011;59607;52.130;5.430;2022-12-29T07:46:16;4.67;;;0.50;;
71773;SDS011;59607;52.130;5.430;2022-12-29T07:49:06;6.53;;;0.57;;
71773;SDS011;59607;52.130;5.430;2022-12-29T07:51:32;3.00;;;0.20;;
71773;SDS011;59607;52.130;5.430;2022-12-29T07:53:59;1.70;;;0.22;;
71773;SDS011;59607;52.130;5.430;2022-12-29T07:56:27;3.55;;;0.88;;
71773;SDS011;59607;52.130;5.430;2022-12-29T07:58:57;2.83;;;0.20;;
71773;SDS011;59607;52.130;5.430;2022-12-29T08:01:29;3.88;;;0.32;;
71773;SDS011;59607;52.130;5.430;2022-12-29T08:03:59;4.63;;;0.50;;
71773;SDS011;59607;52.130;5.430;2022-12-29T08:06:26;7.43;;;0.95;;
71773;SDS011;59607;52.130;5.430;2022-12-29T08:08:57;4.25;;;0.50;;
71773;SDS011;59607;52.130;5.430;2022-12-29T08:11:31;5.50;;;0.60;;
71773;SDS011;59607;52.130;5.430;2022-12-29T08:14:00;5.63;;;0.95;;
71773;SDS011;59607;52.130;5.430;2022-12-29T08:16:26;3.08;;;0.50;;
71773;SDS011;59607;52.130;5.430;2022-12-29T08:18:56;4.35;;;0.38;;
71773;SDS011;59607;52.130;5.430;2022-12-29T08:21:31;4.95;;;0.60;;
71773;SDS011;59607;52.130;5.430;2022-12-29T08:23:58;4.83;;;0.40;;
71773;SDS011;59607;52.130;5.430;2022-12-29T08:26:27;4.15;;;0.43;;
71773;SDS011;59607;52.130;5.430;2022-12-29T08:28:54;5.45;;;0.50;;
71773;SDS011;59607;52.130;5.430;2022-12-29T08:31:22;6.57;;;0.52;;
71773;SDS011;59607;52.130;5.430;2022-12-29T08:33:53;3.97;;;0.40;;
71773;SDS011;59607;52.130;5.430;2022-12-29T08:36:19;4.83;;;0.30;;
71773;SDS011;59607;52.130;5.430;2022-12-29T08:38:55;4.55;;;0.50;;
71773;SDS011;59607;52.130;5.430;2022-12-29T08:41:22;4.30;;;0.57;;
71773;SDS011;59607;52.130;5.430;2022-12-29T08:43:48;9.07;;;1.42;;
71773;SDS011;59607;52.130;5.430;2022-12-29T08:46:18;5.78;;;0.60;;
71773;SDS011;59607;52.130;5.430;2022-12-29T08:48:45;4.23;;;0.70;;
71773;SDS011;59607;52.130;5.430;2022-12-29T08:51:12;3.55;;;0.50;;
71773;SDS011;59607;52.130;5.430;2022-12-29T08:53:48;3.67;;;0.45;;
71773;SDS011;59607;52.130;5.430;2022-12-29T08:56:17;5.45;;;0.40;;
71773;SDS011;59607;52.130;5.430;2022-12-29T08:58:47;5.13;;;0.45;;
71773;SDS011;59607;52.130;5.430;2022-12-29T09:01:14;3.10;;;0.30;;
71773;SDS011;59607;52.130;5.430;2022-12-29T09:03:44;3.97;;;0.30;;
71773;SDS011;59607;52.130;5.430;2022-12-29T09:06:33;3.00;;;0.40;;
71773;SDS011;59607;52.130;5.430;2022-12-29T09:09:05;3.47;;;0.50;;
71773;SDS011;59607;52.130;5.430;2022-12-29T09:11:32;3.30;;;0.60;;
71773;SDS011;59607;52.130;5.430;2022-12-29T09:13:59;6.93;;;0.60;;
71773;SDS011;59607;52.130;5.430;2022-12-29T09:16:25;2.92;;;0.70;;
71773;SDS011;59607;52.130;5.430;2022-12-29T09:19:00;3.55;;;0.43;;
71773;SDS011;59607;52.130;5.430;2022-12-29T09:21:28;5.13;;;0.75;;
71773;SDS011;59607;52.130;5.430;2022-12-29T09:24:00;6.72;;;1.27;;
71773;SDS011;59607;52.130;5.430;2022-12-29T09:26:26;5.13;;;0.40;;
71773;SDS011;59607;52.130;5.430;2022-12-29T09:28:59;6.40;;;0.65;;
71773;SDS011;59607;52.130;5.430;2022-12-29T09:31:27;6.30;;;0.70;;
71773;SDS011;59607;52.130;5.430;2022-12-29T09:33:54;6.32;;;0.90;;
71773;SDS011;59607;52.130;5.430;2022-12-29T09:36:21;6.97;;;0.43;;
71773;SDS011;59607;52.130;5.430;2022-12-29T09:38:53;6.07;;;0.70;;
71773;SDS011;59607;52.130;5.430;2022-12-29T09:41:26;7.80;;;0.70;;
71773;SDS011;59607;52.130;5.430;2022-12-29T09:44:12;3.42;;;0.40;;
71773;SDS011;59607;52.130;5.430;2022-12-29T09:46:48;1.83;;;0.50;;
71773;SDS011;59607;52.130;5.430;2022-12-29T09:52:08;2.77;;;0.50;;
71773;SDS011;59607;52.130;5.430;2022-12-29T09:55:02;3.97;;;0.60;;
71773;SDS011;59607;52.130;5.430;2022-12-29T10:01:07;3.80;;;0.38;;
71773;SDS011;59607;52.130;5.430;2022-12-29T10:04:07;5.72;;;0.70;;
71773;SDS011;59607;52.130;5.430;2022-12-29T10:09:49;6.22;;;0.55;;
71773;SDS011;59607;52.130;5.430;2022-12-29T10:15:29;5.53;;;0.40;;
71773;SDS011;59607;52.130;5.430;2022-12-29T10:24:19;2.78;;;0.47;;
71773;SDS011;59607;52.130;5.430;2022-12-29T10:26:52;2.90;;;0.55;;
71773;SDS011;59607;52.130;5.430;2022-12-29T10:32:36;3.03;;;0.50;;
71773;SDS011;59607;52.130;5.430;2022-12-29T10:35:14;3.70;;;0.40;;
71773;SDS011;59607;52.130;5.430;2022-12-29T10:38:05;3.40;;;0.40;;
71773;SDS011;59607;52.130;5.430;2022-12-29T10:43:30;3.20;;;0.30;;
71773;SDS011;59607;52.130;5.430;2022-12-29T10:46:09;5.60;;;0.47;;
71773;SDS011;59607;52.130;5.430;2022-12-29T10:48:40;4.80;;;0.73;;
71773;SDS011;59607;52.130;5.430;2022-12-29T10:51:19;6.20;;;0.52;;
71773;SDS011;59607;52.130;5.430;2022-12-29T10:53:58;5.63;;;0.90;;
71773;SDS011;59607;52.130;5.430;2022-12-29T10:59:24;5.05;;;0.43;;
71773;SDS011;59607;52.130;5.430;2022-12-29T11:07:43;4.35;;;1.23;;
71773;SDS011;59607;52.130;5.430;2022-12-29T11:10:44;4.15;;;0.80;;
71773;SDS011;59607;52.130;5.430;2022-12-29T11:13:16;6.60;;;0.80;;
71773;SDS011;59607;52.130;5.430;2022-12-29T11:15:47;4.20;;;0.90;;
71773;SDS011;59607;52.130;5.430;2022-12-29T11:20:53;4.80;;;0.98;;
71773;SDS011;59607;52.130;5.430;2022-12-29T11:23:33;9.32;;;1.13;;
71773;SDS011;59607;52.130;5.430;2022-12-29T11:26:13;9.18;;;0.98;;
71773;SDS011;59607;52.130;5.430;2022-12-29T11:29:04;4.17;;;0.70;;
71773;SDS011;59607;52.130;5.430;2022-12-29T11:31:56;8.73;;;1.67;;
71773;SDS011;59607;52.130;5.430;2022-12-29T11:34:35;6.18;;;1.02;;
71773;SDS011;59607;52.130;5.430;2022-12-29T11:37:02;7.13;;;0.85;;
71773;SDS011;59607;52.130;5.430;2022-12-29T11:39:38;8.85;;;1.48;;
71773;SDS011;59607;52.130;5.430;2022-12-29T11:42:34;6.10;;;1.03;;
71773;SDS011;59607;52.130;5.430;2022-12-29T11:45:06;6.00;;;0.80;;
71773;SDS011;59607;52.130;5.430;2022-12-29T11:47:45;6.18;;;0.80;;
71773;SDS011;59607;52.130;5.430;2022-12-29T11:50:28;7.03;;;0.73;;
71773;SDS011;59607;52.130;5.430;2022-12-29T11:52:58;9.13;;;0.90;;
71773;SDS011;59607;52.130;5.430;2022-12-29T11:55:32;7.07;;;1.10;;
71773;SDS011;59607;52.130;5.430;2022-12-29T11:58:00;8.35;;;0.75;;
71773;SDS011;59607;52.130;5.430;2022-12-29T12:00:34;11.27;;;1.40;;
71773;SDS011;59607;52.130;5.430;2022-12-29T12:03:24;8.13;;;1.30;;
71773;SDS011;59607;52.130;5.430;2022-12-29T12:06:00;8.23;;;1.30;;
71773;SDS011;59607;52.130;5.430;2022-12-29T12:08:35;12.80;;;2.23;;
71773;SDS011;59607;52.130;5.430;2022-12-29T12:11:37;7.68;;;1.50;;
71773;SDS011;59607;52.130;5.430;2022-12-29T12:14:12;5.50;;;0.90;;
71773;SDS011;59607;52.130;5.430;2022-12-29T12:16:45;8.43;;;1.00;;
71773;SDS011;59607;52.130;5.430;2022-12-29T12:22:18;10.53;;;1.17;;
71773;SDS011;59607;52.130;5.430;2022-12-29T12:25:03;7.40;;;1.13;;
71773;SDS011;59607;52.130;5.430;2022-12-29T12:27:33;7.72;;;1.40;;
71773;SDS011;59607;52.130;5.430;2022-12-29T12:30:20;7.82;;;0.95;;
71773;SDS011;59607;52.130;5.430;2022-12-29T12:32:59;9.30;;;1.88;;
71773;SDS011;59607;52.130;5.430;2022-12-29T12:35:38;11.00;;;1.40;;
71773;SDS011;59607;52.130;5.430;2022-12-29T12:43:50;7.75;;;0.95;;
71773;SDS011;59607;52.130;5.430;2022-12-29T12:49:42;11.23;;;1.97;;
71773;SDS011;59607;52.130;5.430;2022-12-29T12:58:44;8.50;;;0.95;;
71773;SDS011;59607;52.130;5.430;2022-12-29T13:01:18;10.25;;;1.77;;
71773;SDS011;59607;52.130;5.430;2022-12-29T13:04:25;8.87;;;0.80;;
71773;SDS011;59607;52.130;5.430;2022-12-29T13:12:37;12.65;;;1.08;;
71773;SDS011;59607;52.130;5.430;2022-12-29T13:27:27;8.02;;;0.70;;
71773;SDS011;59607;52.130;5.430;2022-12-29T13:30:21;10.43;;;1.30;;
71773;SDS011;59607;52.130;5.430;2022-12-29T13:36:10;4.70;;;0.77;;
71773;SDS011;59607;52.130;5.430;2022-12-29T13:39:10;7.05;;;2.17;;
71773;SDS011;59607;52.130;5.430;2022-12-29T13:41:51;10.10;;;1.10;;
71773;SDS011;59607;52.130;5.430;2022-12-29T13:44:29;8.48;;;1.15;;
71773;SDS011;59607;52.130;5.430;2022-12-29T13:47:05;4.97;;;0.70;;
71773;SDS011;59607;52.130;5.430;2022-12-29T13:49:56;8.20;;;1.00;;
71773;SDS011;59607;52.130;5.430;2022-12-29T13:52:55;12.07;;;1.30;;
71773;SDS011;59607;52.130;5.430;2022-12-29T13:55:54;9.80;;;1.33;;
71773;SDS011;59607;52.130;5.430;2022-12-29T13:58:44;12.55;;;1.20;;
71773;SDS011;59607;52.130;5.430;2022-12-29T14:01:22;5.77;;;0.80;;
71773;SDS011;59607;52.130;5.430;2022-12-29T14:03:58;7.93;;;1.10;;
71773;SDS011;59607;52.130;5.430;2022-12-29T14:06:27;7.97;;;0.98;;
71773;SDS011;59607;52.130;5.430;2022-12-29T14:10:18;6.07;;;1.23;;
71773;SDS011;59607;52.130;5.430;2022-12-29T14:12:19;3.35;;;0.75;;
71773;SDS011;59607;52.130;5.430;2022-12-29T14:15:41;4.50;;;1.10;;
71773;SDS011;59607;52.130;5.430;2022-12-29T14:28:57;4.00;;;0.50;;
71773;SDS011;59607;52.130;5.430;2022-12-29T14:32:01;4.60;;;0.40;;
71773;SDS011;59607;52.130;5.430;2022-12-29T14:34:38;1.70;;;0.30;;
71773;SDS011;59607;52.130;5.430;2022-12-29T14:37:17;3.25;;;0.30;;
71773;SDS011;59607;52.130;5.430;2022-12-29T14:39:48;2.53;;;0.60;;
71773;SDS011;59607;52.130;5.430;2022-12-29T14:42:19;2.63;;;0.40;;
71773;SDS011;59607;52.130;5.430;2022-12-29T14:44:50;3.17;;;0.73;;
71773;SDS011;59607;52.130;5.430;2022-12-29T14:47:45;2.45;;;0.38;;
71773;SDS011;59607;52.130;5.430;2022-12-29T14:50:35;2.92;;;0.30;;
71773;SDS011;59607;52.130;5.430;2022-12-29T14:56:11;3.57;;;0.30;;
71773;SDS011;59607;52.130;5.430;2022-12-29T14:58:52;4.15;;;0.40;;
71773;SDS011;59607;52.130;5.430;2022-12-29T15:04:00;2.33;;;0.30;;
71773;SDS011;59607;52.130;5.430;2022-12-29T15:06:39;2.83;;;0.30;;
71773;SDS011;59607;52.130;5.430;2022-12-29T15:09:30;3.60;;;0.67;;
71773;SDS011;59607;52.130;5.430;2022-12-29T15:12:14;3.67;;;0.40;;
71773;SDS011;59607;52.130;5.430;2022-12-29T15:14:51;2.45;;;0.30;;
71773;SDS011;59607;52.130;5.430;2022-12-29T15:17:32;4.60;;;0.40;;
71773;SDS011;59607;52.130;5.430;2022-12-29T15:20:03;5.28;;;0.30;;
71773;SDS011;59607;52.130;5.430;2022-12-29T15:22:53;5.17;;;0.50;;
71773;SDS011;59607;52.130;5.430;2022-12-29T15:25:26;2.00;;;0.50;;
71773;SDS011;59607;52.130;5.430;2022-12-29T15:28:14;3.85;;;0.45;;
71773;SDS011;59607;52.130;5.430;2022-12-29T15:31:01;7.00;;;0.60;;
71773;SDS011;59607;52.130;5.430;2022-12-29T15:33:36;6.78;;;0.57;;
71773;SDS011;59607;52.130;5.430;2022-12-29T15:36:09;5.97;;;0.80;;
71773;SDS011;59607;52.130;5.430;2022-12-29T15:38:52;6.85;;;0.80;;
71773;SDS011;59607;52.130;5.430;2022-12-29T15:44:08;5.40;;;0.50;;
71773;SDS011;59607;52.130;5.430;2022-12-29T15:46:48;7.53;;;0.70;;
71773;SDS011;59607;52.130;5.430;2022-12-29T15:49:16;2.80;;;0.57;;
71773;SDS011;59607;52.130;5.430;2022-12-29T15:51:42;3.58;;;0.40;;
71773;SDS011;59607;52.130;5.430;2022-12-29T15:54:20;2.42;;;0.40;;
71773;SDS011;59607;52.130;5.430;2022-12-29T15:56:48;6.35;;;0.65;;
71773;SDS011;59607;52.130;5.430;2022-12-29T16:01:53;2.40;;;0.30;;
71773;SDS011;59607;52.130;5.430;2022-12-29T16:04:25;3.58;;;0.60;;
71773;SDS011;59607;52.130;5.430;2022-12-29T16:06:59;2.42;;;0.43;;
71773;SDS011;59607;52.130;5.430;2022-12-29T16:09:56;4.80;;;0.43;;
71773;SDS011;59607;52.130;5.430;2022-12-29T16:12:31;5.57;;;0.50;;
71773;SDS011;59607;52.130;5.430;2022-12-29T16:15:06;3.07;;;0.50;;
71773;SDS011;59607;52.130;5.430;2022-12-29T16:17:57;5.80;;;0.75;;
71773;SDS011;59607;52.130;5.430;2022-12-29T16:20:25;4.97;;;0.63;;
71773;SDS011;59607;52.130;5.430;2022-12-29T16:23:00;4.80;;;0.60;;
71773;SDS011;59607;52.130;5.430;2022-12-29T16:25:30;6.70;;;0.50;;
71773;SDS011;59607;52.130;5.430;2022-12-29T16:28:13;3.97;;;0.77;;
71773;SDS011;59607;52.130;5.430;2022-12-29T16:30:57;2.22;;;0.50;;
71773;SDS011;59607;52.130;5.430;2022-12-29T16:39:11;5.90;;;0.57;;
71773;SDS011;59607;52.130;5.430;2022-12-29T16:41:51;3.13;;;0.70;;
71773;SDS011;59607;52.130;5.430;2022-12-29T16:44:30;2.65;;;0.80;;
71773;SDS011;59607;52.130;5.430;2022-12-29T16:49:36;3.85;;;0.55;;
71773;SDS011;59607;52.130;5.430;2022-12-29T16:52:29;4.63;;;0.43;;
71773;SDS011;59607;52.130;5.430;2022-12-29T16:55:00;4.63;;;0.70;;
71773;SDS011;59607;52.130;5.430;2022-12-29T16:57:31;3.40;;;0.40;;
71773;SDS011;59607;52.130;5.430;2022-12-29T17:00:04;6.25;;;0.40;;
71773;SDS011;59607;52.130;5.430;2022-12-29T17:02:34;6.53;;;0.77;;
71773;SDS011;59607;52.130;5.430;2022-12-29T17:05:19;3.92;;;0.30;;
71773;SDS011;59607;52.130;5.430;2022-12-29T17:07:45;2.07;;;0.30;;
71773;SDS011;59607;52.130;5.430;2022-12-29T17:10:22;5.55;;;0.47;;
71773;SDS011;59607;52.130;5.430;2022-12-29T17:13:09;3.58;;;0.35;;
71773;SDS011;59607;52.130;5.430;2022-12-29T17:15:39;5.00;;;0.68;;
71773;SDS011;59607;52.130;5.430;2022-12-29T17:18:06;5.47;;;0.55;;
71773;SDS011;59607;52.130;5.430;2022-12-29T17:20:39;6.50;;;0.40;;
71773;SDS011;59607;52.130;5.430;2022-12-29T17:23:24;6.50;;;0.73;;
71773;SDS011;59607;52.130;5.430;2022-12-29T17:25:53;3.83;;;0.47;;
71773;SDS011;59607;52.130;5.430;2022-12-29T17:28:21;6.68;;;0.95;;
71773;SDS011;59607;52.130;5.430;2022-12-29T17:31:00;3.50;;;0.43;;
71773;SDS011;59607;52.130;5.430;2022-12-29T17:33:29;8.93;;;1.13;;
71773;SDS011;59607;52.130;5.430;2022-12-29T17:36:00;3.50;;;0.50;;
71773;SDS011;59607;52.130;5.430;2022-12-29T17:38:27;4.20;;;0.60;;
71773;SDS011;59607;52.130;5.430;2022-12-29T17:40:58;5.70;;;0.60;;
71773;SDS011;59607;52.130;5.430;2022-12-29T17:43:25;17.17;;;0.93;;
71773;SDS011;59607;52.130;5.430;2022-12-29T17:46:06;5.77;;;0.70;;
71773;SDS011;59607;52.130;5.430;2022-12-29T17:48:39;4.00;;;0.50;;
71773;SDS011;59607;52.130;5.430;2022-12-29T17:51:19;5.80;;;1.10;;
71773;SDS011;59607;52.130;5.430;2022-12-29T17:53:49;3.50;;;0.43;;
71773;SDS011;59607;52.130;5.430;2022-12-29T17:56:17;5.47;;;1.10;;
71773;SDS011;59607;52.130;5.430;2022-12-29T17:58:43;5.90;;;1.13;;
71773;SDS011;59607;52.130;5.430;2022-12-29T18:01:14;5.00;;;0.60;;